Terminal Aerodrome Forecast
Issued by NWS Wilmington, NC

Home | Current Version | Previous Version | Text Only | Print | Product List | Glossary On
Versions: 1 2 3 4 5 6 7 8 9 10 11 12 13 14 15 16 17 18
446
FTUS42 KILM 300815 AAA
TAFLBT
TAF AMD
KLBT 300815Z 3008/3106 13008KT P6SM SKC
      TEMPO 3008/3012 OVC006
     FM301800 13009KT P6SM SCT035
     FM310200 14010KT P6SM BKN035 PROB30 3103/3106 2SM TSRA
      OVC005CB=

USA.gov is the U.S. government's official web portal to all federal, state and local government web resources and services.